首页
METAR-TAF:

METAR-TAF

机场 :

Friedman Memorial Airport

Hailey, 爱达荷州, 美国

纬度: 43-30N, 经度: 114-18W, 海拔: 1620米

当前天气观测

该预报发布于1小时和23分钟前的18:50 UTC
风速12节,风向南转南东
温度 22°C
湿度 53%
气压 1016 hPa
能見度: 16.1公里
散云层高于8000英尺

METAR: KSUN 071850Z 16012KT 10SM SCT080 22/12 A3001

时间: 14:13 (20:13 UTC)

预报

该预报发布于2小时和43分钟前的17:30 UTC
预报有效从07日的 18点(UTC)到 08日的 24点(UTC)
风速6节,风向多变
能見度: 10公里
少量云层高于4000英尺
阴天层高于9000英尺
附近有阵雨
从 07日的 2000点(UTC)
风速8节,风向南转南东
能見度: 10公里
散云层高于3000英尺, 积雨云.
多云层高于8000英尺
附近有雷暴
短暂存在
从 07日的 22点(UTC)到 08日的 02点(UTC)
风速20节,风向多变,有时为35节阵风
能見度: 6.4公里
多云层高于3000英尺, 积雨云.
阴天层高于8000英尺
雷暴, 雨
从 08日的 0200点(UTC)
风速8节,风向北转东北
能見度: 10公里
散云层高于8000英尺, 积雨云.
散云层高于13000英尺
多云层高于15000英尺
附近有雷暴
从 08日的 0500点(UTC)
风速6节,风向西北
能見度: 10公里
散云层高于8000英尺
多云层高于12000英尺
从 08日的 1300点(UTC)
风速6节,风向西北
能見度: 10公里
散云层高于8000英尺
多云层高于12000英尺
附近有阵雨
从 08日的 2100点(UTC)
风速8节,风向东南
能見度: 10公里
散云层高于6000英尺, 积雨云.
多云层高于14000英尺
附近有雷暴

TAF: KSUN 071730Z 0718/0824 VRB06KT P6SM VCSH FEW040 OVC090 FM072000 15008KT P6SM VCTS SCT030CB BKN080 TEMPO 0722/0802 VRB20G35KT 4SM TSRA BKN030CB OVC080 FM080200 03008KT P6SM VCTS SCT080CB SCT130 BKN150 FM080500 32006KT P6SM SCT080 BKN120 FM081300 32006KT P6SM VCSH SCT080 BKN120 FM082100 13008KT P6SM VCTS SCT060CB BKN140

超过4000个机场的气象观测和天气预报(METAR&TAF报告)。

可查询的气象台以黄色和红色小点在地图上表示。

将鼠标移到小点上方,可查看气象台名称。

然后点击查看天气观测和预报。

如需切换地图:点击带黑十字的绿色按钮放大地图;点击带横线的绿色按钮缩小地图;或者点击绿色箭头查看邻近地区的地图。


METAR-TAF: